Time;durP1;ratioP1;P1;durP2;ratioP2;P2;SDS_P1;SDS_P2;PMS_P1;PMS_P2;Temp;Humidity;BMP_temperature;BMP_pressure;BME280_temperature;BME280_humidity;BME280_pressure;Samples;Min_cycle;Max_cycle;Signal;HPM_P1;HPM_P2
2021/12/14 00:00:30;;;;;;;77.15;68.63;;;;;;;;;;5007445;28;20024;-57
2021/12/14 00:02:57;;;;;;;92.90;77.60;;;;;;;;;;5007360;28;20396;-54
2021/12/14 00:05:22;;;;;;;105.53;84.00;;;;;;;;;;5007125;28;20050;-57
2021/12/14 00:07:48;;;;;;;98.50;79.13;;;;;;;;;;5007276;28;20061;-57
2021/12/14 00:13:00;;;;;;;99.63;80.28;;;;;;;;;;5007152;28;20040;-57
2021/12/14 00:15:25;;;;;;;105.65;84.22;;;;;;;;;;5006979;28;20041;-57
2021/12/14 00:18:02;;;;;;;100.33;81.50;;;;;;;;;;5006988;28;20041;-58
2021/12/14 00:20:27;;;;;;;96.28;79.07;;;;;;;;;;5006899;28;20272;-58
2021/12/14 00:25:40;;;;;;;102.63;83.20;;;;;;;;;;5006672;28;20068;-55
2021/12/14 00:28:07;;;;;;;106.05;84.32;;;;;;;;;;5006298;28;20111;-58
2021/12/14 00:30:33;;;;;;;100.80;82.70;;;;;;;;;;5006847;28;20889;-57
2021/12/14 00:32:58;;;;;;;98.60;80.20;;;;;;;;;;5006897;28;20026;-57
2021/12/14 00:35:24;;;;;;;88.03;75.07;;;;;;;;;;5006602;28;20570;-57
2021/12/14 00:37:50;;;;;;;97.15;79.47;;;;;;;;;;5006461;28;20034;-55
2021/12/14 00:40:18;;;;;;;113.15;87.93;;;;;;;;;;5006762;28;20030;-55
2021/12/14 00:42:44;;;;;;;116.65;89.38;;;;;;;;;;5006420;28;20492;-54
2021/12/14 00:45:09;;;;;;;127.85;94.65;;;;;;;;;;5006273;28;20088;-56
2021/12/14 00:47:34;;;;;;;118.97;90.40;;;;;;;;;;5006218;28;20018;-56
2021/12/14 00:49:59;;;;;;;139.07;100.47;;;;;;;;;;5005664;28;20340;-56
2021/12/14 00:52:25;;;;;;;125.23;94.03;;;;;;;;;;5005730;28;20671;-54
2021/12/14 00:54:50;;;;;;;130.63;96.45;;;;;;;;;;5006259;28;20420;-52
2021/12/14 00:57:15;;;;;;;144.68;102.15;;;;;;;;;;5006137;28;20026;-56
2021/12/14 00:59:40;;;;;;;142.45;102.03;;;;;;;;;;5006399;28;20064;-55
2021/12/14 01:02:16;;;;;;;144.30;102.23;;;;;;;;;;5005640;28;20033;-56
2021/12/14 01:04:44;;;;;;;147.60;103.28;;;;;;;;;;5006179;28;20277;-56
2021/12/14 01:07:10;;;;;;;132.85;96.80;;;;;;;;;;5006116;28;20033;-55
2021/12/14 01:09:38;;;;;;;147.45;103.47;;;;;;;;;;5006056;28;20033;-52
2021/12/14 01:12:08;;;;;;;153.60;106.80;;;;;;;;;;5005831;28;20091;-53
2021/12/14 01:14:45;;;;;;;160.07;109.30;;;;;;;;;;5005663;28;20041;-53
2021/12/14 01:17:26;;;;;;;152.23;105.05;;;;;;;;;;5006003;28;20041;-53
2021/12/14 01:19:56;;;;;;;171.77;113.03;;;;;;;;;;5005628;28;20138;-54
2021/12/14 01:25:11;;;;;;;169.20;111.63;;;;;;;;;;5005295;28;20064;-52
2021/12/14 01:27:42;;;;;;;131.73;96.88;;;;;;;;;;5005638;28;20030;-54
2021/12/14 01:30:12;;;;;;;159.55;108.00;;;;;;;;;;5005281;28;20060;-52
2021/12/14 01:32:41;;;;;;;141.32;101.35;;;;;;;;;;5005482;28;20091;-54
2021/12/14 01:35:12;;;;;;;163.40;109.40;;;;;;;;;;5004143;28;20505;-54
2021/12/14 01:37:43;;;;;;;150.48;104.18;;;;;;;;;;5005417;28;20049;-52
2021/12/14 01:40:18;;;;;;;159.20;108.13;;;;;;;;;;5005474;28;20026;-54
2021/12/14 01:42:43;;;;;;;133.88;98.13;;;;;;;;;;5006093;28;20133;-52
2021/12/14 01:45:09;;;;;;;160.07;108.70;;;;;;;;;;5005728;28;20117;-51
2021/12/14 01:47:36;;;;;;;132.55;97.55;;;;;;;;;;5005482;28;20085;-52
2021/12/14 01:50:01;;;;;;;126.10;93.97;;;;;;;;;;5005005;28;20036;-54
2021/12/14 01:52:28;;;;;;;125.25;92.78;;;;;;;;;;5005712;28;20017;-52
2021/12/14 01:54:54;;;;;;;139.73;99.43;;;;;;;;;;5005458;28;20144;-52
2021/12/14 01:57:20;;;;;;;145.98;103.40;;;;;;;;;;5005331;28;20401;-53
2021/12/14 01:59:45;;;;;;;149.50;104.45;;;;;;;;;;5004923;28;20488;-54
2021/12/14 02:04:42;;;;;;;158.05;108.80;;;;;;;;;;5005271;28;20040;-54
2021/12/14 02:07:07;;;;;;;150.27;104.32;;;;;;;;;;5005203;28;20022;-54
2021/12/14 02:09:33;;;;;;;151.70;105.05;;;;;;;;;;5005036;28;20568;-53
2021/12/14 02:12:00;;;;;;;158.70;108.25;;;;;;;;;;5004793;28;20022;-54
2021/12/14 02:14:25;;;;;;;161.05;108.20;;;;;;;;;;5005093;28;20021;-56
2021/12/14 02:16:52;;;;;;;155.30;106.13;;;;;;;;;;5005192;28;20546;-56
2021/12/14 02:19:17;;;;;;;182.27;116.28;;;;;;;;;;5004250;28;20567;-54
2021/12/14 02:21:43;;;;;;;185.63;118.60;;;;;;;;;;5004830;28;20113;-53
2021/12/14 02:24:08;;;;;;;175.50;113.03;;;;;;;;;;5004699;28;20060;-56
2021/12/14 02:26:34;;;;;;;176.23;115.25;;;;;;;;;;5005164;28;20404;-56
2021/12/14 02:29:03;;;;;;;183.98;117.38;;;;;;;;;;5005438;28;20054;-56
2021/12/14 02:31:28;;;;;;;213.38;129.00;;;;;;;;;;5004683;28;20095;-55
2021/12/14 02:33:54;;;;;;;210.50;128.05;;;;;;;;;;5004415;28;20648;-54
2021/12/14 02:36:25;;;;;;;206.30;126.03;;;;;;;;;;5004405;28;20026;-56
2021/12/14 02:38:55;;;;;;;231.27;135.35;;;;;;;;;;5004843;28;20038;-52
2021/12/14 02:41:21;;;;;;;;;;;;;;;;;;5004832;28;20105;-56
2021/12/14 02:43:53;;;;;;;242.57;139.33;;;;;;;;;;5019669;28;20020;-54
2021/12/14 02:46:20;;;;;;;259.92;150.80;;;;;;;;;;5004267;28;20467;-54
2021/12/14 02:48:46;;;;;;;195.27;121.32;;;;;;;;;;5004289;28;20096;-56
2021/12/14 02:51:13;;;;;;;217.32;130.82;;;;;;;;;;5004290;28;20022;-56
2021/12/14 02:53:38;;;;;;;176.40;115.22;;;;;;;;;;5004201;28;20053;-56
2021/12/14 02:56:07;;;;;;;178.75;116.28;;;;;;;;;;5004309;28;20048;-55
2021/12/14 02:58:32;;;;;;;183.35;117.13;;;;;;;;;;5004185;28;20033;-53
2021/12/14 03:00:58;;;;;;;195.83;123.27;;;;;;;;;;5004128;28;20168;-54
2021/12/14 03:03:23;;;;;;;173.85;114.15;;;;;;;;;;5003946;28;20113;-53
2021/12/14 03:05:49;;;;;;;157.13;106.07;;;;;;;;;;5000502;28;20030;-53
2021/12/14 03:08:16;;;;;;;159.02;107.93;;;;;;;;;;4990781;28;20258;-53
2021/12/14 03:13:20;;;;;;;170.70;111.65;;;;;;;;;;5003421;28;20056;-54
2021/12/14 03:15:51;;;;;;;196.50;121.18;;;;;;;;;;4995694;28;20480;-52
2021/12/14 03:18:17;;;;;;;176.00;113.72;;;;;;;;;;5007305;28;20130;-54
2021/12/14 03:20:44;;;;;;;135.02;97.63;;;;;;;;;;5007825;28;20037;-55
2021/12/14 03:23:20;;;;;;;115.75;89.28;;;;;;;;;;5007724;28;20026;-55
2021/12/14 03:25:46;;;;;;;125.90;94.10;;;;;;;;;;5007564;28;20112;-52
2021/12/14 03:28:12;;;;;;;134.82;98.03;;;;;;;;;;5007409;28;20095;-55
2021/12/14 03:30:42;;;;;;;132.65;96.50;;;;;;;;;;5006248;28;20030;-55
2021/12/14 03:33:17;;;;;;;130.68;95.90;;;;;;;;;;5007239;28;20099;-56
2021/12/14 03:35:47;;;;;;;139.00;99.05;;;;;;;;;;5007411;28;20026;-53
2021/12/14 03:38:32;;;;;;;143.15;101.20;;;;;;;;;;5007339;28;20046;-53
2021/12/14 03:41:00;;;;;;;137.68;98.72;;;;;;;;;;4999848;28;20514;-55
2021/12/14 03:43:26;;;;;;;151.52;104.45;;;;;;;;;;5007324;28;20099;-53
2021/12/14 03:45:51;;;;;;;156.63;106.35;;;;;;;;;;5007055;28;20109;-55
2021/12/14 03:48:17;;;;;;;164.17;109.17;;;;;;;;;;5007111;28;20450;-55
2021/12/14 03:50:42;;;;;;;157.98;106.90;;;;;;;;;;4996685;28;20289;-56
2021/12/14 03:53:08;;;;;;;155.20;105.65;;;;;;;;;;5004307;28;20064;-55
2021/12/14 03:55:34;;;;;;;172.55;112.57;;;;;;;;;;5007304;28;20037;-54
2021/12/14 03:58:00;;;;;;;179.05;114.97;;;;;;;;;;5007032;28;20042;-54
2021/12/14 04:00:27;;;;;;;202.88;123.78;;;;;;;;;;4999344;28;20018;-57
2021/12/14 04:02:53;;;;;;;202.80;124.20;;;;;;;;;;5007282;28;20026;-55
2021/12/14 04:05:18;;;;;;;238.02;138.80;;;;;;;;;;5006828;28;20028;-55
2021/12/14 04:07:43;;;;;;;198.70;122.73;;;;;;;;;;5006955;28;20428;-55
2021/12/14 04:10:13;;;;;;;206.07;125.78;;;;;;;;;;5006748;28;20366;-54
2021/12/14 04:12:38;;;;;;;197.53;122.50;;;;;;;;;;5006891;28;20022;-55
2021/12/14 04:15:03;;;;;;;216.97;129.73;;;;;;;;;;5007038;28;20299;-55
2021/12/14 04:17:30;;;;;;;224.73;132.13;;;;;;;;;;5006479;28;20295;-54
2021/12/14 04:19:55;;;;;;;196.15;121.28;;;;;;;;;;5006784;28;20100;-54
2021/12/14 04:22:21;;;;;;;221.52;131.10;;;;;;;;;;5006478;28;20476;-55
2021/12/14 04:24:47;;;;;;;217.63;130.07;;;;;;;;;;5006651;28;20068;-55
2021/12/14 04:27:15;;;;;;;210.07;126.25;;;;;;;;;;5006706;28;20049;-53
2021/12/14 04:29:40;;;;;;;193.07;119.55;;;;;;;;;;5006453;28;20040;-54
2021/12/14 04:32:06;;;;;;;204.50;123.28;;;;;;;;;;5006267;28;20116;-55
2021/12/14 04:34:33;;;;;;;226.30;132.35;;;;;;;;;;5006401;28;20492;-57
2021/12/14 04:36:58;;;;;;;240.38;138.35;;;;;;;;;;5006290;28;20104;-55
2021/12/14 04:52:59;;;;;;;181.07;115.43;;;;;;;;;;4992858;28;20510;-57
2021/12/14 04:55:24;;;;;;;177.25;113.45;;;;;;;;;;5006325;28;20046;-55
2021/12/14 04:57:50;;;;;;;188.33;118.37;;;;;;;;;;5006426;28;20516;-55
2021/12/14 05:00:18;;;;;;;211.33;126.47;;;;;;;;;;5006236;28;20026;-56
2021/12/14 05:02:43;;;;;;;208.27;125.78;;;;;;;;;;5006598;28;20030;-55
2021/12/14 05:05:08;;;;;;;202.55;123.50;;;;;;;;;;5006152;28;20044;-56
2021/12/14 05:07:48;;;;;;;193.27;119.22;;;;;;;;;;5006219;28;20049;-55
2021/12/14 05:10:18;;;;;;;199.88;122.05;;;;;;;;;;5005756;28;20022;-56
2021/12/14 05:12:44;;;;;;;204.93;123.35;;;;;;;;;;5006117;28;20500;-56
2021/12/14 05:15:09;;;;;;;214.27;127.82;;;;;;;;;;5005970;28;20109;-52
2021/12/14 05:17:36;;;;;;;218.13;128.25;;;;;;;;;;5004409;28;20049;-57
2021/12/14 05:20:01;;;;;;;210.75;125.10;;;;;;;;;;5006128;28;20040;-56
2021/12/14 05:22:32;;;;;;;243.45;137.70;;;;;;;;;;5005508;28;20029;-57
2021/12/14 05:25:01;;;;;;;235.73;135.40;;;;;;;;;;5005776;28;20209;-57
2021/12/14 05:27:30;;;;;;;238.75;135.55;;;;;;;;;;5005616;28;20030;-55
2021/12/14 05:30:01;;;;;;;291.73;160.27;;;;;;;;;;5005605;28;20065;-57
2021/12/14 05:32:27;;;;;;;266.17;147.85;;;;;;;;;;5005432;28;20045;-54
2021/12/14 05:34:52;;;;;;;286.23;157.18;;;;;;;;;;5005556;28;20030;-55
2021/12/14 05:37:21;;;;;;;264.07;146.83;;;;;;;;;;5004898;28;20203;-55
2021/12/14 05:39:56;;;;;;;288.70;159.63;;;;;;;;;;5005615;28;20276;-55
2021/12/14 05:45:10;;;;;;;317.40;171.95;;;;;;;;;;4998343;28;20033;-56
2021/12/14 05:47:39;;;;;;;390.45;213.77;;;;;;;;;;4997759;28;20072;-54
2021/12/14 05:50:05;;;;;;;389.67;213.95;;;;;;;;;;5005520;28;20109;-55
2021/12/14 05:52:30;;;;;;;394.67;215.90;;;;;;;;;;5005067;28;20033;-52
2021/12/14 05:54:55;;;;;;;394.97;217.57;;;;;;;;;;5005302;28;20058;-56
2021/12/14 05:57:21;;;;;;;389.23;213.40;;;;;;;;;;5004571;28;20034;-54
2021/12/14 05:59:46;;;;;;;393.63;215.13;;;;;;;;;;5005075;28;20144;-57
2021/12/14 06:02:12;;;;;;;403.20;224.48;;;;;;;;;;5005026;28;20402;-56
2021/12/14 06:04:41;;;;;;;396.63;218.38;;;;;;;;;;5000299;28;20113;-52
2021/12/14 06:07:06;;;;;;;398.05;220.07;;;;;;;;;;4993404;28;20033;-56
2021/12/14 06:09:33;;;;;;;411.08;229.75;;;;;;;;;;5003184;28;20034;-55
2021/12/14 06:11:59;;;;;;;370.10;199.85;;;;;;;;;;5004179;28;20034;-53
2021/12/14 06:14:25;;;;;;;405.40;224.48;;;;;;;;;;5004608;28;20053;-53
2021/12/14 06:16:53;;;;;;;407.00;224.07;;;;;;;;;;5000136;28;20022;-63
2021/12/14 06:19:21;;;;;;;449.50;253.50;;;;;;;;;;4985091;28;20042;-66
2021/12/14 06:21:50;;;;;;;483.02;274.15;;;;;;;;;;4998936;28;20033;-51
2021/12/14 06:24:15;;;;;;;453.33;255.38;;;;;;;;;;5004314;28;20463;-56
2021/12/14 06:26:45;;;;;;;408.55;227.05;;;;;;;;;;5001467;28;20030;-62
2021/12/14 06:29:12;;;;;;;419.00;233.30;;;;;;;;;;4990951;28;20026;-55
2021/12/14 06:31:37;;;;;;;538.42;316.63;;;;;;;;;;4997213;28;20413;-54
2021/12/14 06:34:10;;;;;;;416.58;229.40;;;;;;;;;;5004885;28;20484;-51
2021/12/14 06:37:02;;;;;;;406.73;223.90;;;;;;;;;;5004632;28;20053;-60
2021/12/14 06:39:28;;;;;;;427.63;239.60;;;;;;;;;;5004195;28;20038;-58
2021/12/14 06:42:02;;;;;;;422.33;234.87;;;;;;;;;;4995143;28;20179;-55
2021/12/14 06:44:28;;;;;;;428.90;239.90;;;;;;;;;;4992628;28;20277;-54
2021/12/14 06:46:53;;;;;;;428.07;238.60;;;;;;;;;;4990748;28;20860;-55
2021/12/14 06:49:19;;;;;;;432.98;240.95;;;;;;;;;;4990685;28;20435;-58
2021/12/14 06:51:46;;;;;;;440.52;247.85;;;;;;;;;;4990750;28;20389;-52
2021/12/14 06:54:13;;;;;;;418.80;232.02;;;;;;;;;;5005718;28;20045;-56
2021/12/14 06:56:38;;;;;;;484.10;276.08;;;;;;;;;;5009184;28;20037;-58
2021/12/14 06:59:05;;;;;;;477.60;271.33;;;;;;;;;;4997972;28;20026;-55
2021/12/14 07:01:32;;;;;;;428.88;238.60;;;;;;;;;;4996173;28;20293;-52
2021/12/14 07:03:59;;;;;;;431.45;240.02;;;;;;;;;;5003327;28;20112;-52
2021/12/14 07:06:25;;;;;;;400.58;218.45;;;;;;;;;;5007675;28;20025;-54
2021/12/14 07:08:50;;;;;;;415.93;228.53;;;;;;;;;;5007687;28;20018;-53
2021/12/14 07:11:22;;;;;;;393.48;214.15;;;;;;;;;;4988308;28;20695;-53
2021/12/14 07:13:47;;;;;;;399.05;217.80;;;;;;;;;;5001985;28;20069;-58
2021/12/14 07:16:19;;;;;;;414.05;227.52;;;;;;;;;;4994511;28;20212;-57
2021/12/14 07:18:44;;;;;;;400.77;219.93;;;;;;;;;;4997218;28;20488;-54
2021/12/14 07:21:10;;;;;;;421.63;232.70;;;;;;;;;;5008092;28;20022;-54
2021/12/14 07:23:36;;;;;;;407.00;223.43;;;;;;;;;;5007423;28;20097;-56
2021/12/14 07:26:03;;;;;;;385.75;208.75;;;;;;;;;;5007700;28;20264;-58
2021/12/14 07:28:29;;;;;;;397.65;215.27;;;;;;;;;;5007402;28;20407;-59
2021/12/14 07:30:55;;;;;;;419.45;230.55;;;;;;;;;;4998261;28;20110;-56
2021/12/14 07:33:31;;;;;;;404.70;220.77;;;;;;;;;;4987673;28;20511;-55
2021/12/14 07:35:59;;;;;;;404.73;221.50;;;;;;;;;;4988745;28;20021;-54
2021/12/14 07:40:02;;;;;;;420.27;230.65;;;;;;;;;;4981189;28;20155;-55
2021/12/14 07:42:27;;;;;;;403.48;220.82;;;;;;;;;;5042528;28;20869;-55
2021/12/14 07:44:52;;;;;;;422.00;233.93;;;;;;;;;;5043183;28;20025;-54
2021/12/14 07:47:20;;;;;;;411.63;226.63;;;;;;;;;;5044470;28;20013;-55
2021/12/14 07:49:47;;;;;;;442.73;246.43;;;;;;;;;;5042743;28;20022;-54
2021/12/14 07:52:16;;;;;;;453.08;253.10;;;;;;;;;;5041481;28;20055;-56
2021/12/14 07:54:44;;;;;;;434.85;239.55;;;;;;;;;;5044072;28;20074;-52
2021/12/14 07:57:10;;;;;;;483.88;276.85;;;;;;;;;;5041174;28;20608;-52
2021/12/14 07:59:37;;;;;;;477.52;271.25;;;;;;;;;;5032668;28;20041;-56
2021/12/14 08:02:21;;;;;;;491.65;280.98;;;;;;;;;;5030605;28;20021;-57
2021/12/14 08:04:47;;;;;;;492.20;280.98;;;;;;;;;;5024816;28;20620;-55
2021/12/14 08:07:30;;;;;;;468.52;268.73;;;;;;;;;;5028592;28;20551;-56
2021/12/14 08:10:06;;;;;;;302.08;168.40;;;;;;;;;;5023987;28;20500;-59
2021/12/14 08:12:39;;;;;;;358.10;193.13;;;;;;;;;;5037509;28;20036;-55
2021/12/14 08:15:12;;;;;;;338.13;183.13;;;;;;;;;;5027076;28;20022;-55
2021/12/14 08:17:38;;;;;;;358.85;195.50;;;;;;;;;;5025050;28;20034;-55
2021/12/14 08:20:05;;;;;;;360.40;193.63;;;;;;;;;;5025815;28;20029;-54
2021/12/14 08:22:34;;;;;;;386.60;211.45;;;;;;;;;;5024595;28;20014;-57
2021/12/14 08:24:59;;;;;;;398.87;219.33;;;;;;;;;;5021020;28;20060;-55
2021/12/14 08:27:26;;;;;;;373.95;200.52;;;;;;;;;;5029007;28;20129;-55
2021/12/14 08:29:52;;;;;;;402.65;221.05;;;;;;;;;;5031005;28;20035;-55
2021/12/14 08:32:20;;;;;;;402.77;219.75;;;;;;;;;;5022257;28;20025;-56
2021/12/14 08:34:46;;;;;;;409.60;226.80;;;;;;;;;;5022099;28;20083;-54
2021/12/14 08:37:12;;;;;;;431.30;239.85;;;;;;;;;;5025294;28;20026;-57
2021/12/14 08:39:42;;;;;;;411.27;226.15;;;;;;;;;;5045066;28;20053;-52
2021/12/14 08:42:20;;;;;;;413.90;227.85;;;;;;;;;;5043822;28;20842;-55
2021/12/14 08:44:52;;;;;;;498.33;287.98;;;;;;;;;;5042081;28;20823;-55
2021/12/14 08:47:25;;;;;;;407.42;224.27;;;;;;;;;;5028100;28;20025;-55
2021/12/14 08:49:50;;;;;;;381.83;208.27;;;;;;;;;;5035151;28;20068;-53
2021/12/14 08:52:16;;;;;;;369.02;198.93;;;;;;;;;;5029244;28;20057;-57
2021/12/14 08:54:45;;;;;;;365.83;197.10;;;;;;;;;;5025983;28;20029;-57
2021/12/14 08:57:13;;;;;;;386.67;210.57;;;;;;;;;;5028653;28;20295;-56
2021/12/14 08:59:38;;;;;;;387.42;210.55;;;;;;;;;;5028521;28;20045;-56
2021/12/14 09:02:06;;;;;;;385.63;208.25;;;;;;;;;;5028249;28;20415;-54
2021/12/14 09:04:34;;;;;;;375.27;202.02;;;;;;;;;;5030530;28;20028;-55
2021/12/14 09:07:02;;;;;;;392.48;213.32;;;;;;;;;;5027884;28;20024;-56
2021/12/14 09:09:28;;;;;;;376.80;203.77;;;;;;;;;;5027858;28;20695;-54
2021/12/14 09:12:28;;;;;;;380.43;205.67;;;;;;;;;;5028769;28;20507;-56
2021/12/14 09:14:54;;;;;;;404.10;222.88;;;;;;;;;;4943317;28;20306;-55
2021/12/14 09:17:22;;;;;;;343.05;184.30;;;;;;;;;;5016010;28;20059;-55
2021/12/14 09:19:54;;;;;;;356.60;190.80;;;;;;;;;;5031267;28;20040;-55
2021/12/14 09:22:41;;;;;;;375.27;201.27;;;;;;;;;;5010211;28;20066;-55
2021/12/14 09:25:07;;;;;;;365.60;196.00;;;;;;;;;;5027489;28;20029;-56
2021/12/14 09:27:32;;;;;;;376.40;201.02;;;;;;;;;;5027342;28;20446;-57
2021/12/14 09:29:57;;;;;;;389.10;211.65;;;;;;;;;;5027512;28;20087;-55
2021/12/14 09:32:27;;;;;;;390.80;211.20;;;;;;;;;;5028389;28;20045;-55
2021/12/14 09:34:52;;;;;;;401.55;220.35;;;;;;;;;;5027000;28;20064;-54
2021/12/14 09:37:18;;;;;;;408.45;226.15;;;;;;;;;;5026881;28;20053;-55
2021/12/14 09:39:45;;;;;;;431.92;240.63;;;;;;;;;;5026345;28;20132;-55
2021/12/14 09:42:11;;;;;;;428.20;238.05;;;;;;;;;;5026312;28;20025;-57
2021/12/14 09:44:36;;;;;;;387.45;211.15;;;;;;;;;;5027788;28;20017;-55
2021/12/14 09:47:04;;;;;;;395.80;214.47;;;;;;;;;;5030839;28;20027;-54
2021/12/14 09:49:30;;;;;;;414.88;228.45;;;;;;;;;;5027741;28;20094;-55
2021/12/14 09:51:59;;;;;;;449.23;252.38;;;;;;;;;;5036693;28;20475;-55
2021/12/14 09:54:25;;;;;;;436.83;244.23;;;;;;;;;;5026721;28;20033;-55
2021/12/14 09:56:55;;;;;;;445.85;249.88;;;;;;;;;;5046122;28;20660;-56
2021/12/14 09:59:21;;;;;;;469.38;265.45;;;;;;;;;;5046544;28;20427;-55
2021/12/14 10:01:46;;;;;;;525.28;304.50;;;;;;;;;;5045155;28;20023;-55
2021/12/14 10:04:17;;;;;;;490.60;281.63;;;;;;;;;;5045810;28;20272;-55
2021/12/14 10:06:42;;;;;;;471.67;266.70;;;;;;;;;;5029641;28;20295;-56
2021/12/14 10:09:12;;;;;;;435.80;240.45;;;;;;;;;;5032795;28;20057;-54
2021/12/14 10:11:49;;;;;;;401.52;218.65;;;;;;;;;;5034430;28;20112;-56
2021/12/14 10:14:16;;;;;;;401.63;220.15;;;;;;;;;;5045689;28;20441;-55
2021/12/14 10:16:41;;;;;;;399.33;217.90;;;;;;;;;;5045498;28;20029;-55
2021/12/14 10:19:08;;;;;;;383.35;205.73;;;;;;;;;;5045406;28;20170;-55
2021/12/14 10:21:35;;;;;;;400.77;217.18;;;;;;;;;;5045631;28;20174;-56
2021/12/14 10:24:00;;;;;;;425.35;234.23;;;;;;;;;;5045337;28;20033;-55
2021/12/14 10:26:26;;;;;;;413.48;225.88;;;;;;;;;;5036861;28;20510;-54
2021/12/14 10:28:53;;;;;;;405.50;220.18;;;;;;;;;;5044134;28;20028;-56
2021/12/14 10:31:29;;;;;;;415.48;228.07;;;;;;;;;;5043521;28;20036;-54
2021/12/14 10:33:58;;;;;;;431.60;237.55;;;;;;;;;;5044645;28;20025;-54
2021/12/14 10:36:31;;;;;;;420.37;231.17;;;;;;;;;;5044709;28;20526;-54
2021/12/14 10:44:21;;;;;;;436.15;243.38;;;;;;;;;;5045249;28;20047;-55
2021/12/14 10:46:48;;;;;;;434.63;241.07;;;;;;;;;;5047939;28;20572;-53
2021/12/14 10:49:14;;;;;;;450.85;253.20;;;;;;;;;;5050523;28;20112;-56
2021/12/14 10:51:39;;;;;;;442.65;245.73;;;;;;;;;;5036330;28;20112;-54
2021/12/14 10:54:06;;;;;;;462.63;259.65;;;;;;;;;;5024955;28;20160;-55
2021/12/14 10:56:36;;;;;;;464.15;260.05;;;;;;;;;;5024867;28;20463;-54
2021/12/14 10:59:03;;;;;;;466.70;262.88;;;;;;;;;;5024768;28;20060;-57
2021/12/14 11:01:31;;;;;;;485.33;276.75;;;;;;;;;;5024902;28;20535;-53
2021/12/14 11:04:00;;;;;;;479.23;268.90;;;;;;;;;;5024748;28;20026;-52
2021/12/14 11:06:28;;;;;;;491.70;277.88;;;;;;;;;;5040385;28;20104;-54
2021/12/14 11:11:27;;;;;;;475.90;268.50;;;;;;;;;;5037359;28;20040;-54
2021/12/14 11:13:53;;;;;;;464.33;261.13;;;;;;;;;;5024615;28;20021;-51
2021/12/14 11:16:34;;;;;;;469.45;263.00;;;;;;;;;;5024480;28;20528;-54
2021/12/14 11:19:00;;;;;;;498.30;283.67;;;;;;;;;;5028220;28;20040;-54
2021/12/14 11:21:25;;;;;;;478.95;270.60;;;;;;;;;;5043000;28;20032;-55
2021/12/14 11:23:52;;;;;;;481.73;270.63;;;;;;;;;;5044480;28;20503;-56
2021/12/14 11:26:19;;;;;;;501.55;287.83;;;;;;;;;;5042247;28;20262;-54
2021/12/14 11:28:49;;;;;;;503.50;289.40;;;;;;;;;;5042404;28;20031;-58
2021/12/14 11:31:23;;;;;;;507.85;290.33;;;;;;;;;;5044599;28;20135;-58
2021/12/14 11:33:59;;;;;;;500.73;286.40;;;;;;;;;;5044389;28;20064;-56
2021/12/14 11:36:26;;;;;;;496.48;280.63;;;;;;;;;;5044692;28;20512;-55
2021/12/14 11:39:01;;;;;;;505.33;288.48;;;;;;;;;;5044049;28;20087;-54
2021/12/14 11:41:28;;;;;;;509.58;291.98;;;;;;;;;;5044034;28;20415;-55
2021/12/14 11:43:55;;;;;;;510.73;293.27;;;;;;;;;;5043515;28;20104;-55
2021/12/14 11:46:20;;;;;;;511.17;296.10;;;;;;;;;;5043416;28;20104;-55
2021/12/14 11:48:45;;;;;;;527.03;303.95;;;;;;;;;;5044121;28;20111;-55
2021/12/14 11:51:11;;;;;;;520.43;301.20;;;;;;;;;;5044258;28;20470;-55
2021/12/14 11:53:36;;;;;;;558.17;327.30;;;;;;;;;;5044224;28;20263;-55
2021/12/14 11:56:09;;;;;;;553.17;321.67;;;;;;;;;;5044273;28;20562;-54
2021/12/14 11:58:43;;;;;;;553.85;326.48;;;;;;;;;;5043878;28;20128;-55
2021/12/14 12:01:14;;;;;;;552.20;323.48;;;;;;;;;;5044203;28;20510;-56
2021/12/14 12:03:39;;;;;;;532.03;309.42;;;;;;;;;;5044087;28;20028;-53
2021/12/14 12:06:10;;;;;;;527.17;304.77;;;;;;;;;;5043770;28;20113;-54
2021/12/14 12:11:24;;;;;;;527.80;305.55;;;;;;;;;;5044115;28;20028;-54
2021/12/14 12:13:49;;;;;;;530.25;308.90;;;;;;;;;;5042410;28;20033;-53
2021/12/14 12:16:17;;;;;;;543.85;317.42;;;;;;;;;;5044054;28;20031;-56
2021/12/14 12:19:01;;;;;;;538.70;314.70;;;;;;;;;;5043410;28;20128;-56
2021/12/14 12:21:29;;;;;;;512.67;294.23;;;;;;;;;;5043644;28;20029;-56
2021/12/14 12:23:55;;;;;;;504.25;286.70;;;;;;;;;;5043894;28;20024;-53
2021/12/14 12:26:20;;;;;;;509.37;293.43;;;;;;;;;;5046382;28;20025;-56
2021/12/14 12:28:47;;;;;;;493.52;280.55;;;;;;;;;;5028460;28;20032;-57
2021/12/14 12:31:15;;;;;;;471.52;265.45;;;;;;;;;;5032238;28;20024;-52
2021/12/14 12:33:41;;;;;;;467.48;264.33;;;;;;;;;;5037964;28;20033;-54
2021/12/14 12:36:30;;;;;;;463.70;261.27;;;;;;;;;;5027780;28;20072;-54
2021/12/14 12:39:15;;;;;;;435.00;243.02;;;;;;;;;;5018411;28;20062;-52
2021/12/14 12:41:47;;;;;;;406.92;223.15;;;;;;;;;;5027061;28;20025;-55
2021/12/14 12:44:19;;;;;;;394.95;215.00;;;;;;;;;;5027183;28;20029;-54
2021/12/14 12:46:46;;;;;;;409.30;225.18;;;;;;;;;;5044515;28;20282;-54
2021/12/14 12:49:12;;;;;;;424.83;236.43;;;;;;;;;;5046973;28;20048;-52
2021/12/14 12:51:43;;;;;;;431.60;241.33;;;;;;;;;;5038288;28;20072;-52
2021/12/14 12:54:12;;;;;;;444.08;247.82;;;;;;;;;;5026925;28;20518;-53
2021/12/14 12:56:38;;;;;;;468.20;265.63;;;;;;;;;;5026955;28;20018;-52
2021/12/14 12:59:06;;;;;;;499.65;288.90;;;;;;;;;;5026618;28;20044;-52
2021/12/14 13:01:31;;;;;;;511.55;296.20;;;;;;;;;;5026970;28;20130;-52
2021/12/14 13:03:56;;;;;;;509.33;296.20;;;;;;;;;;5027214;28;20070;-52
2021/12/14 13:06:22;;;;;;;504.60;292.33;;;;;;;;;;5041268;28;20283;-52
2021/12/14 13:08:52;;;;;;;529.10;308.13;;;;;;;;;;5046680;28;20279;-51
2021/12/14 13:11:17;;;;;;;680.33;461.75;;;;;;;;;;5041052;28;20758;-52
2021/12/14 13:13:43;;;;;;;550.87;327.10;;;;;;;;;;5026643;28;20060;-51
2021/12/14 13:16:27;;;;;;;512.90;296.67;;;;;;;;;;5026856;28;20065;-52
2021/12/14 13:18:55;;;;;;;518.38;301.00;;;;;;;;;;5026695;28;20037;-54
2021/12/14 13:21:29;;;;;;;533.75;313.80;;;;;;;;;;5027181;28;20023;-55
2021/12/14 13:24:06;;;;;;;524.45;307.45;;;;;;;;;;5026590;28;20033;-54
2021/12/14 13:26:50;;;;;;;546.65;321.70;;;;;;;;;;5042228;28;20060;-54
2021/12/14 13:29:15;;;;;;;588.38;357.83;;;;;;;;;;5046864;28;20029;-54
2021/12/14 13:31:44;;;;;;;669.90;448.30;;;;;;;;;;5040013;28;20028;-53
2021/12/14 13:34:13;;;;;;;623.78;393.77;;;;;;;;;;5028380;28;20280;-53
2021/12/14 13:36:38;;;;;;;554.80;332.08;;;;;;;;;;5027694;28;20025;-52
2021/12/14 13:39:05;;;;;;;526.63;309.45;;;;;;;;;;5029104;28;20457;-52
2021/12/14 13:41:49;;;;;;;505.13;292.92;;;;;;;;;;5028483;28;20028;-52
2021/12/14 13:44:14;;;;;;;481.52;277.80;;;;;;;;;;5027917;28;20049;-52
2021/12/14 13:46:39;;;;;;;426.25;240.30;;;;;;;;;;5043512;28;20482;-52
2021/12/14 13:49:05;;;;;;;397.37;220.30;;;;;;;;;;5047249;28;20023;-51
2021/12/14 13:51:30;;;;;;;416.10;234.53;;;;;;;;;;5047482;28;20358;-51
2021/12/14 13:53:56;;;;;;;413.83;232.05;;;;;;;;;;5048247;28;20056;-53
2021/12/14 13:56:23;;;;;;;397.20;219.68;;;;;;;;;;5048094;28;20578;-52
2021/12/14 13:58:50;;;;;;;405.95;227.52;;;;;;;;;;5047683;28;20097;-55
2021/12/14 14:01:19;;;;;;;399.80;220.93;;;;;;;;;;5050725;28;20116;-55
2021/12/14 14:03:47;;;;;;;401.83;223.98;;;;;;;;;;5047504;28;20028;-55
2021/12/14 14:06:13;;;;;;;391.33;216.90;;;;;;;;;;5046641;28;20475;-55
2021/12/14 14:08:43;;;;;;;372.98;205.05;;;;;;;;;;5046115;28;20028;-53
2021/12/14 14:11:14;;;;;;;384.23;213.50;;;;;;;;;;5044154;28;20119;-53
2021/12/14 14:13:39;;;;;;;365.92;201.88;;;;;;;;;;5044865;28;20120;-51
2021/12/14 14:16:05;;;;;;;375.25;207.70;;;;;;;;;;5045592;28;20462;-51
2021/12/14 14:18:36;;;;;;;359.70;197.18;;;;;;;;;;5045779;28;21411;-53
2021/12/14 14:21:02;;;;;;;369.75;203.80;;;;;;;;;;5045615;28;20024;-54
2021/12/14 14:23:33;;;;;;;388.42;215.80;;;;;;;;;;5045796;28;20013;-53
2021/12/14 14:26:01;;;;;;;365.80;201.68;;;;;;;;;;5045773;28;20082;-55
2021/12/14 14:28:35;;;;;;;405.15;228.90;;;;;;;;;;5045637;28;20017;-54
2021/12/14 14:31:00;;;;;;;483.08;280.08;;;;;;;;;;5042128;28;20029;-54
2021/12/14 14:33:32;;;;;;;449.40;257.67;;;;;;;;;;5025245;28;20028;-53
2021/12/14 14:36:03;;;;;;;394.95;219.95;;;;;;;;;;5025413;28;20092;-54
2021/12/14 14:38:29;;;;;;;397.88;221.60;;;;;;;;;;5029180;28;20045;-54
2021/12/14 14:40:55;;;;;;;408.65;230.43;;;;;;;;;;5027987;28;20033;-54